Terry, MT

3:20 AM MST on February 23, 2017 (GMT -0700)
MD8631 | | Change Station

Elev 2282 ft 46.73 °N, 105.44 °W | Updated 2 minutes ago

Mostly Cloudy
Mostly Cloudy
28.0 °F
Feels Like 22 °F
N
5.0
Wind Variable Wind from NNE
Gusts 9.0 mph

Today
High -- | Low -- °F
--% Chance of Precip.
Yesterday
High -- | Low -- °F
Precip. -- in
Pressure 30.09 in
Visibility 4.0 miles
Clouds Mostly Cloudy 3300 ft
Overcast 6000 ft
Windchill 22 °F
Dew Point 25 °F
Humidity 90%
Rainfall 0.06 in
Snow Depth Not available.
6:51 AM 5:38 PM
Waning Crescent, 11% visible
METAR KGDV 230956Z AUTO 03003KT 4SM -SN BR BKN033 OVC060 M03/M03 A2999 RMK AO2 SLP187 P0000 T10331033 FZRANO
Pressure 30.09 in
Visibility 4.0 miles
Clouds Mostly Cloudy 3300 ft
Overcast 6000 ft
Windchill 22 °F
Dew Point 25 °F
Humidity 90%
Rainfall 0.06 in
Snow Depth Not available.
6:51 AM 5:38 PM
Waning Crescent, 11% visible
METAR KGDV 230956Z AUTO 03003KT 4SM -SN BR BKN033 OVC060 M03/M03 A2999 RMK AO2 SLP187 P0000 T10331033 FZRANO

Get Your Daily Forecast Email!

Thanks for signing up!

Be on the lookout for a verification email in your inbox.

You'll start receiving the daily forecast at 8 AM.

×

10-Day Weather Forecast

Almanac

Astronomy

Feb. 23, 2017 Rise Set
Actual Time
Civil Twilight
Nautical Twilight
Astronomical Twilight
Moon
Length of Visible Light
Length of Day
Tomorrow will be .
, % of the Moon is Illuminated

Today's Extremes

State Highs State Lows

Community

WunderPhotos

Upload Photos

1,962,540 photos uploaded!

WunderBlog® & News

Nearby

Air Quality

  Air Quality AQ Index Pollutant
Not available.

Snow Depth

Station Depth Elevation

Earthquake Activity

City Distance Mag. Time & Date
Minimum magnitude displayed is 2.5.

Coastal Water Temperatures

Place Temperature

Stations

Nearby Weather Stations

Station Location Temp. Windchill Dew Point Humidity Wind Precip. Elev Updated Type
                   

Watches & Warnings

There are currently no watches in effect.